KLM1985 SCEL-SAEZ
Flight info
| Callsign | KLM1985 |
|---|---|
| Flight time | 1h 35m |
| Altitude | 35000 |
| Route | ALBAL UM424 ASADA |
| Aircraft | B77L/H-VGDW/C |
Departure
| Time | 2026-05-04 02:25 |
|---|---|
| Airport | Comodoro Arturo Merino Benítez International Airport (SCEL) |
Arrival
| Time | 2026-05-04 04:00 |
|---|---|
| Airport | Ezeiza International Airport - Ministro Pistarini (SAEZ) |
| Time | Latitude | Longitude | Altitude | Speed | Heading |
|---|---|---|---|---|---|
| 2026-05-04 02:10 | -33.39584 | -70.79296 | 1569 ft | 0 kts | 178° |
| 2026-05-04 02:11 | -33.39585 | -70.79296 | 1569 ft | 0 kts | 178° |
| 2026-05-04 02:16 | -33.39584 | -70.79296 | 1569 ft | 1 kts | 178° |
| 2026-05-04 02:16 | -33.39569 | -70.79296 | 1569 ft | 2 kts | 178° |
| 2026-05-04 02:16 | -33.39551 | -70.79297 | 1569 ft | 3 kts | 178° |
| 2026-05-04 02:17 | -33.39530 | -70.79299 | 1569 ft | 3 kts | 163° |
| 2026-05-04 02:17 | -33.39512 | -70.79310 | 1569 ft | 3 kts | 140° |
| 2026-05-04 02:17 | -33.39504 | -70.79321 | 1569 ft | 0 kts | 128° |
| 2026-05-04 02:17 | -33.39508 | -70.79315 | 1569 ft | 3 kts | 128° |
| 2026-05-04 02:18 | -33.39524 | -70.79282 | 1569 ft | 6 kts | 106° |
| 2026-05-04 02:18 | -33.39522 | -70.79218 | 1569 ft | 9 kts | 79° |
| 2026-05-04 02:18 | -33.39507 | -70.79129 | 1569 ft | 12 kts | 80° |
| 2026-05-04 02:18 | -33.39499 | -70.79016 | 1569 ft | 15 kts | 86° |
| 2026-05-04 02:19 | -33.39486 | -70.78904 | 1569 ft | 11 kts | 63° |
| 2026-05-04 02:19 | -33.39426 | -70.78843 | 1569 ft | 12 kts | 33° |
| 2026-05-04 02:19 | -33.39348 | -70.78800 | 1569 ft | 13 kts | 10° |
| 2026-05-04 02:19 | -33.39256 | -70.78799 | 1569 ft | 14 kts | 356° |
| 2026-05-04 02:20 | -33.39159 | -70.78802 | 1569 ft | 14 kts | 357° |
| 2026-05-04 02:20 | -33.39055 | -70.78809 | 1569 ft | 15 kts | 357° |
| 2026-05-04 02:20 | -33.38948 | -70.78815 | 1569 ft | 16 kts | 357° |
| 2026-05-04 02:20 | -33.38836 | -70.78821 | 1569 ft | 16 kts | 358° |
| 2026-05-04 02:21 | -33.38721 | -70.78826 | 1569 ft | 17 kts | 357° |
| 2026-05-04 02:21 | -33.38603 | -70.78833 | 1569 ft | 17 kts | 357° |
| 2026-05-04 02:21 | -33.38483 | -70.78840 | 1569 ft | 17 kts | 357° |
| 2026-05-04 02:21 | -33.38360 | -70.78848 | 1569 ft | 18 kts | 357° |
| 2026-05-04 02:22 | -33.38236 | -70.78855 | 1569 ft | 18 kts | 357° |
| 2026-05-04 02:22 | -33.38110 | -70.78862 | 1569 ft | 18 kts | 357° |
| 2026-05-04 02:22 | -33.37982 | -70.78868 | 1569 ft | 18 kts | 357° |
| 2026-05-04 02:22 | -33.37854 | -70.78874 | 1569 ft | 19 kts | 358° |
| 2026-05-04 02:23 | -33.37724 | -70.78881 | 1569 ft | 19 kts | 357° |
| 2026-05-04 02:23 | -33.37603 | -70.78884 | 1569 ft | 17 kts | 7° |
| 2026-05-04 02:23 | -33.37556 | -70.78797 | 1569 ft | 14 kts | 86° |
| 2026-05-04 02:23 | -33.37571 | -70.78689 | 1569 ft | 12 kts | 136° |
| 2026-05-04 02:24 | -33.37636 | -70.78672 | 1569 ft | 0 kts | 178° |
| 2026-05-04 02:24 | -33.37687 | -70.78669 | 1569 ft | 33 kts | 177° |
| 2026-05-04 02:24 | -33.38298 | -70.78636 | 1569 ft | 140 kts | 178° |
| 2026-05-04 02:25 | -33.39569 | -70.78573 | 1747 ft | 214 kts | 178° |
| 2026-05-04 02:25 | -33.41105 | -70.78532 | 2108 ft | 218 kts | 178° |
| 2026-05-04 02:25 | -33.42618 | -70.78456 | 2278 ft | 218 kts | 177° |
| 2026-05-04 02:25 | -33.44077 | -70.78350 | 2561 ft | 225 kts | 176° |
| 2026-05-04 02:26 | -33.45740 | -70.78224 | 2905 ft | 232 kts | 176° |
| 2026-05-04 02:26 | -33.47365 | -70.78113 | 3198 ft | 241 kts | 176° |
| 2026-05-04 02:26 | -33.49061 | -70.78004 | 3528 ft | 245 kts | 177° |
| 2026-05-04 02:26 | -33.50783 | -70.77895 | 3981 ft | 250 kts | 177° |
| 2026-05-04 02:27 | -33.52540 | -70.77784 | 4486 ft | 256 kts | 177° |
| 2026-05-04 02:27 | -33.54331 | -70.77686 | 4989 ft | 258 kts | 178° |
| 2026-05-04 02:27 | -33.56134 | -70.77616 | 5485 ft | 262 kts | 178° |
| 2026-05-04 02:27 | -33.57973 | -70.77558 | 5984 ft | 266 kts | 180° |
| 2026-05-04 02:28 | -33.59841 | -70.77531 | 6490 ft | 269 kts | 183° |
| 2026-05-04 02:28 | -33.61720 | -70.77516 | 6998 ft | 271 kts | 184° |
| 2026-05-04 02:28 | -33.63603 | -70.77503 | 7498 ft | 269 kts | 184° |
| 2026-05-04 02:28 | -33.65450 | -70.77491 | 7992 ft | 269 kts | 184° |
| 2026-05-04 02:29 | -33.67329 | -70.77479 | 8493 ft | 271 kts | 184° |
| 2026-05-04 02:29 | -33.69228 | -70.77467 | 8996 ft | 273 kts | 184° |
| 2026-05-04 02:29 | -33.71134 | -70.77455 | 9498 ft | 275 kts | 184° |
| 2026-05-04 02:29 | -33.73058 | -70.77444 | 10000 ft | 277 kts | 184° |
| 2026-05-04 02:30 | -33.74994 | -70.77433 | 10501 ft | 279 kts | 184° |
| 2026-05-04 02:30 | -33.76946 | -70.77422 | 11003 ft | 281 kts | 184° |
| 2026-05-04 02:30 | -33.78915 | -70.77412 | 11505 ft | 284 kts | 184° |
| 2026-05-04 02:30 | -33.80875 | -70.77402 | 12002 ft | 289 kts | 184° |
| 2026-05-04 02:31 | -33.82916 | -70.77392 | 12508 ft | 299 kts | 184° |
| 2026-05-04 02:31 | -33.85022 | -70.77383 | 13013 ft | 305 kts | 184° |
| 2026-05-04 02:31 | -33.87173 | -70.77104 | 13479 ft | 319 kts | 168° |
| 2026-05-04 02:31 | -33.89169 | -70.75858 | 13978 ft | 329 kts | 146° |
| 2026-05-04 02:32 | -33.90736 | -70.73820 | 14496 ft | 336 kts | 129° |
| 2026-05-04 02:32 | -33.91957 | -70.71373 | 14999 ft | 350 kts | 117° |
| 2026-05-04 02:32 | -33.92930 | -70.68608 | 15513 ft | 365 kts | 114° |
| 2026-05-04 02:32 | -33.93892 | -70.65733 | 16017 ft | 376 kts | 112° |
| 2026-05-04 02:33 | -33.94840 | -70.62770 | 16519 ft | 383 kts | 112° |
| 2026-05-04 02:33 | -33.95781 | -70.59727 | 17023 ft | 390 kts | 111° |
| 2026-05-04 02:33 | -33.96717 | -70.56638 | 17525 ft | 394 kts | 111° |
| 2026-05-04 02:33 | -33.97663 | -70.53526 | 18026 ft | 397 kts | 111° |
| 2026-05-04 02:34 | -33.98602 | -70.50436 | 18521 ft | 399 kts | 111° |
| 2026-05-04 02:34 | -33.99537 | -70.47273 | 19022 ft | 402 kts | 110° |
| 2026-05-04 02:34 | -34.00459 | -70.44075 | 19523 ft | 405 kts | 110° |
| 2026-05-04 02:34 | -34.01383 | -70.40853 | 20025 ft | 408 kts | 110° |
| 2026-05-04 02:35 | -34.02314 | -70.37608 | 20527 ft | 411 kts | 110° |
| 2026-05-04 02:35 | -34.03250 | -70.34346 | 21027 ft | 414 kts | 110° |
| 2026-05-04 02:35 | -34.04194 | -70.31056 | 21528 ft | 417 kts | 110° |
| 2026-05-04 02:35 | -34.05146 | -70.27735 | 22031 ft | 420 kts | 110° |
| 2026-05-04 02:36 | -34.06103 | -70.24395 | 22532 ft | 423 kts | 110° |
| 2026-05-04 02:36 | -34.07068 | -70.21025 | 23034 ft | 426 kts | 110° |
| 2026-05-04 02:36 | -34.08046 | -70.17632 | 23536 ft | 429 kts | 110° |
| 2026-05-04 02:36 | -34.09047 | -70.14258 | 24034 ft | 432 kts | 111° |
| 2026-05-04 02:37 | -34.10050 | -70.10831 | 24535 ft | 435 kts | 110° |
| 2026-05-04 02:37 | -34.11045 | -70.07373 | 25035 ft | 438 kts | 110° |
| 2026-05-04 02:37 | -34.12042 | -70.03875 | 25538 ft | 442 kts | 110° |
| 2026-05-04 02:37 | -34.13043 | -70.00350 | 26040 ft | 445 kts | 110° |
| 2026-05-04 02:38 | -34.14047 | -69.96806 | 26540 ft | 448 kts | 110° |
| 2026-05-04 02:38 | -34.15061 | -69.93228 | 27042 ft | 452 kts | 110° |
| 2026-05-04 02:38 | -34.16082 | -69.89621 | 27544 ft | 455 kts | 110° |
| 2026-05-04 02:38 | -34.17108 | -69.85999 | 28045 ft | 458 kts | 110° |
| 2026-05-04 02:39 | -34.18089 | -69.82313 | 28546 ft | 462 kts | 107° |
| 2026-05-04 02:39 | -34.18852 | -69.78578 | 29042 ft | 466 kts | 103° |
| 2026-05-04 02:39 | -34.19476 | -69.74725 | 29543 ft | 470 kts | 100° |
| 2026-05-04 02:39 | -34.19998 | -69.70810 | 30045 ft | 473 kts | 99° |
| 2026-05-04 02:40 | -34.20472 | -69.66849 | 30548 ft | 477 kts | 98° |
| 2026-05-04 02:40 | -34.20959 | -69.62880 | 31048 ft | 480 kts | 99° |
| 2026-05-04 02:40 | -34.21475 | -69.58871 | 31533 ft | 482 kts | 99° |
| 2026-05-04 02:40 | -34.22007 | -69.54872 | 31910 ft | 485 kts | 99° |
| 2026-05-04 02:41 | -34.22551 | -69.50821 | 32287 ft | 490 kts | 99° |
| 2026-05-04 02:41 | -34.23100 | -69.46748 | 32663 ft | 491 kts | 99° |
| 2026-05-04 02:41 | -34.23650 | -69.42677 | 33038 ft | 490 kts | 100° |
| 2026-05-04 02:41 | -34.24225 | -69.38674 | 33408 ft | 489 kts | 100° |
| 2026-05-04 02:42 | -34.24803 | -69.34634 | 33783 ft | 488 kts | 100° |
| 2026-05-04 02:42 | -34.25358 | -69.30588 | 34158 ft | 487 kts | 99° |
| 2026-05-04 02:42 | -34.25897 | -69.26555 | 34533 ft | 486 kts | 99° |
| 2026-05-04 02:42 | -34.26433 | -69.22520 | 34892 ft | 486 kts | 99° |
| 2026-05-04 02:43 | -34.26968 | -69.18478 | 34995 ft | 486 kts | 99° |
| 2026-05-04 02:43 | -34.27502 | -69.14442 | 34998 ft | 487 kts | 99° |
| 2026-05-04 02:43 | -34.28581 | -69.06281 | 34997 ft | 496 kts | 99° |
| 2026-05-04 02:44 | -34.29663 | -68.98024 | 34997 ft | 497 kts | 99° |
| 2026-05-04 02:44 | -34.30730 | -68.89765 | 34997 ft | 496 kts | 99° |
| 2026-05-04 02:45 | -34.31789 | -68.81504 | 34997 ft | 496 kts | 99° |
| 2026-05-04 02:45 | -34.32835 | -68.73293 | 34997 ft | 496 kts | 99° |
| 2026-05-04 02:46 | -34.33882 | -68.65042 | 34997 ft | 496 kts | 99° |
| 2026-05-04 02:46 | -34.34965 | -68.56781 | 34997 ft | 496 kts | 99° |
| 2026-05-04 02:47 | -34.36037 | -68.48522 | 34997 ft | 496 kts | 99° |
| 2026-05-04 02:47 | -34.37085 | -68.40266 | 34997 ft | 496 kts | 99° |
| 2026-05-04 02:48 | -34.38126 | -68.31997 | 34997 ft | 496 kts | 99° |
| 2026-05-04 02:48 | -34.39159 | -68.23735 | 34997 ft | 496 kts | 99° |
| 2026-05-04 02:49 | -34.40205 | -68.15472 | 34997 ft | 496 kts | 99° |
| 2026-05-04 02:49 | -34.41234 | -68.07256 | 34997 ft | 496 kts | 99° |
| 2026-05-04 02:50 | -34.42240 | -67.98978 | 34997 ft | 496 kts | 98° |
| 2026-05-04 02:50 | -34.43239 | -67.90706 | 34997 ft | 496 kts | 98° |
| 2026-05-04 02:51 | -34.44240 | -67.82414 | 34997 ft | 496 kts | 98° |
| 2026-05-04 02:51 | -34.45214 | -67.74136 | 34997 ft | 496 kts | 98° |
| 2026-05-04 02:52 | -34.46167 | -67.65844 | 34997 ft | 496 kts | 98° |
| 2026-05-04 02:52 | -34.47109 | -67.57609 | 34997 ft | 496 kts | 98° |
| 2026-05-04 02:53 | -34.48109 | -67.49330 | 34997 ft | 496 kts | 98° |
| 2026-05-04 02:53 | -34.49059 | -67.41026 | 34997 ft | 496 kts | 98° |
| 2026-05-04 02:54 | -34.49990 | -67.32715 | 34997 ft | 497 kts | 98° |
| 2026-05-04 02:54 | -34.50916 | -67.24424 | 34997 ft | 497 kts | 98° |
| 2026-05-04 02:55 | -34.52302 | -67.11974 | 34997 ft | 497 kts | 98° |
| 2026-05-04 02:56 | -34.53205 | -67.03729 | 34997 ft | 497 kts | 98° |
| 2026-05-04 02:56 | -34.54106 | -66.95429 | 34997 ft | 497 kts | 98° |
| 2026-05-04 02:57 | -34.55001 | -66.87114 | 34997 ft | 497 kts | 98° |
| 2026-05-04 02:57 | -34.55889 | -66.78809 | 34997 ft | 497 kts | 98° |
| 2026-05-04 02:58 | -34.56816 | -66.70501 | 34997 ft | 497 kts | 98° |
| 2026-05-04 02:58 | -34.57734 | -66.62200 | 34997 ft | 497 kts | 98° |
| 2026-05-04 02:59 | -34.58630 | -66.53884 | 34997 ft | 497 kts | 98° |
| 2026-05-04 02:59 | -34.59510 | -66.45614 | 34997 ft | 497 kts | 97° |
| 2026-05-04 03:00 | -34.60388 | -66.37297 | 34997 ft | 497 kts | 97° |
| 2026-05-04 03:00 | -34.61259 | -66.28985 | 34997 ft | 497 kts | 97° |
| 2026-05-04 03:01 | -34.62126 | -66.20653 | 34997 ft | 497 kts | 97° |
| 2026-05-04 03:01 | -34.62986 | -66.12332 | 34997 ft | 497 kts | 97° |
| 2026-05-04 03:02 | -34.63840 | -66.04009 | 34997 ft | 497 kts | 97° |
| 2026-05-04 03:02 | -34.64690 | -65.95682 | 34997 ft | 497 kts | 97° |
| 2026-05-04 03:03 | -34.65528 | -65.87406 | 34997 ft | 497 kts | 97° |
| 2026-05-04 03:03 | -34.66366 | -65.79085 | 34997 ft | 497 kts | 97° |
| 2026-05-04 03:04 | -34.67231 | -65.70744 | 34997 ft | 497 kts | 97° |
| 2026-05-04 03:04 | -34.68052 | -65.62396 | 34997 ft | 497 kts | 97° |
| 2026-05-04 03:05 | -34.68855 | -65.54115 | 34997 ft | 497 kts | 97° |
| 2026-05-04 03:05 | -34.69660 | -65.45776 | 34997 ft | 497 kts | 97° |
| 2026-05-04 03:06 | -34.70466 | -65.37442 | 34997 ft | 497 kts | 97° |
| 2026-05-04 03:06 | -34.71259 | -65.29101 | 34997 ft | 497 kts | 97° |
| 2026-05-04 03:07 | -34.72044 | -65.20761 | 34997 ft | 497 kts | 97° |
| 2026-05-04 03:07 | -34.72693 | -65.13828 | 34997 ft | 497 kts | 97° |
| 2026-05-04 03:08 | -34.73469 | -65.05491 | 34997 ft | 497 kts | 97° |
| 2026-05-04 03:08 | -34.74303 | -64.97150 | 34997 ft | 497 kts | 97° |
| 2026-05-04 03:09 | -34.75092 | -64.88804 | 34997 ft | 497 kts | 96° |
| 2026-05-04 03:09 | -34.75851 | -64.80440 | 34997 ft | 497 kts | 96° |
| 2026-05-04 03:10 | -34.76599 | -64.72141 | 34997 ft | 497 kts | 96° |
| 2026-05-04 03:10 | -34.77353 | -64.63794 | 34997 ft | 497 kts | 96° |
| 2026-05-04 03:11 | -34.78112 | -64.55431 | 34997 ft | 497 kts | 96° |
| 2026-05-04 03:11 | -34.78860 | -64.47085 | 34997 ft | 497 kts | 96° |
| 2026-05-04 03:12 | -34.79604 | -64.38728 | 34997 ft | 497 kts | 96° |
| 2026-05-04 03:12 | -34.80402 | -64.30376 | 34997 ft | 497 kts | 97° |
| 2026-05-04 03:13 | -34.81143 | -64.22061 | 34997 ft | 497 kts | 96° |
| 2026-05-04 03:13 | -34.81868 | -64.13686 | 34997 ft | 497 kts | 96° |
| 2026-05-04 03:14 | -34.82589 | -64.05322 | 34997 ft | 497 kts | 96° |
| 2026-05-04 03:14 | -34.83309 | -63.96965 | 34997 ft | 497 kts | 96° |
| 2026-05-04 03:15 | -34.84049 | -63.88601 | 34997 ft | 497 kts | 96° |
| 2026-05-04 03:15 | -34.84769 | -63.80235 | 34997 ft | 497 kts | 96° |
| 2026-05-04 03:16 | -34.85458 | -63.71923 | 34997 ft | 497 kts | 96° |
| 2026-05-04 03:16 | -34.86148 | -63.63543 | 34997 ft | 497 kts | 96° |
| 2026-05-04 03:17 | -34.86837 | -63.55170 | 34997 ft | 497 kts | 96° |
| 2026-05-04 03:17 | -34.87526 | -63.46799 | 34997 ft | 497 kts | 96° |
| 2026-05-04 03:18 | -34.88203 | -63.38455 | 34997 ft | 497 kts | 96° |
| 2026-05-04 03:18 | -34.88875 | -63.30077 | 34997 ft | 497 kts | 96° |
| 2026-05-04 03:19 | -34.89543 | -63.21699 | 34997 ft | 497 kts | 96° |
| 2026-05-04 03:19 | -34.90207 | -63.13310 | 34997 ft | 497 kts | 96° |
| 2026-05-04 03:20 | -34.90907 | -63.04993 | 34997 ft | 497 kts | 96° |
| 2026-05-04 03:20 | -34.91615 | -62.96615 | 34997 ft | 497 kts | 96° |
| 2026-05-04 03:21 | -34.92264 | -62.88233 | 34997 ft | 497 kts | 95° |
| 2026-05-04 03:21 | -34.92902 | -62.79848 | 34997 ft | 497 kts | 95° |
| 2026-05-04 03:22 | -34.93537 | -62.71464 | 34997 ft | 497 kts | 95° |
| 2026-05-04 03:22 | -34.94183 | -62.63087 | 34997 ft | 497 kts | 96° |
| 2026-05-04 03:23 | -34.94823 | -62.54699 | 34997 ft | 497 kts | 95° |
| 2026-05-04 03:23 | -34.95428 | -62.46357 | 34997 ft | 497 kts | 95° |
| 2026-05-04 03:24 | -34.96033 | -62.37956 | 34997 ft | 497 kts | 95° |
| 2026-05-04 03:24 | -34.96631 | -62.29572 | 34997 ft | 497 kts | 95° |
| 2026-05-04 03:25 | -34.96969 | -62.21164 | 34997 ft | 497 kts | 92° |
| 2026-05-04 03:25 | -34.97172 | -62.12734 | 34997 ft | 497 kts | 92° |
| 2026-05-04 03:26 | -34.97416 | -62.04319 | 34997 ft | 497 kts | 92° |
| 2026-05-04 03:26 | -34.97680 | -61.95949 | 34997 ft | 497 kts | 93° |
| 2026-05-04 03:27 | -34.97997 | -61.87530 | 34997 ft | 497 kts | 92° |
| 2026-05-04 03:27 | -34.98247 | -61.79095 | 34997 ft | 497 kts | 92° |
| 2026-05-04 03:28 | -34.98484 | -61.70671 | 34997 ft | 497 kts | 92° |
| 2026-05-04 03:28 | -34.98718 | -61.62257 | 34997 ft | 497 kts | 92° |
| 2026-05-04 03:29 | -34.98948 | -61.53876 | 34997 ft | 497 kts | 92° |
| 2026-05-04 03:29 | -34.99158 | -61.45455 | 34997 ft | 497 kts | 92° |
| 2026-05-04 03:30 | -34.99359 | -61.37036 | 34997 ft | 497 kts | 91° |
| 2026-05-04 03:30 | -34.99554 | -61.28602 | 34997 ft | 497 kts | 91° |
| 2026-05-04 03:31 | -34.99742 | -61.20188 | 34648 ft | 496 kts | 91° |
| 2026-05-04 03:31 | -34.99836 | -61.15976 | 34148 ft | 497 kts | 92° |
| 2026-05-04 03:31 | -34.99955 | -61.11752 | 33647 ft | 498 kts | 92° |
| 2026-05-04 03:31 | -35.00074 | -61.07533 | 33148 ft | 498 kts | 92° |
| 2026-05-04 03:32 | -35.00182 | -61.03366 | 32652 ft | 495 kts | 92° |
| 2026-05-04 03:32 | -35.00283 | -60.99179 | 32151 ft | 491 kts | 91° |
| 2026-05-04 03:32 | -35.00379 | -60.95027 | 31650 ft | 487 kts | 91° |
| 2026-05-04 03:32 | -35.00471 | -60.90891 | 31149 ft | 489 kts | 91° |
| 2026-05-04 03:33 | -35.00562 | -60.86736 | 30649 ft | 493 kts | 91° |
| 2026-05-04 03:33 | -35.00651 | -60.82535 | 30147 ft | 494 kts | 91° |
| 2026-05-04 03:33 | -35.00739 | -60.78357 | 29646 ft | 491 kts | 91° |
| 2026-05-04 03:33 | -35.00824 | -60.74219 | 29147 ft | 487 kts | 91° |
| 2026-05-04 03:34 | -35.00907 | -60.70105 | 28646 ft | 483 kts | 91° |
| 2026-05-04 03:34 | -35.00988 | -60.66027 | 28145 ft | 479 kts | 91° |
| 2026-05-04 03:34 | -35.01067 | -60.61979 | 27644 ft | 475 kts | 91° |
| 2026-05-04 03:34 | -35.01143 | -60.57970 | 27144 ft | 472 kts | 91° |
| 2026-05-04 03:35 | -35.01218 | -60.53984 | 26643 ft | 468 kts | 91° |
| 2026-05-04 03:35 | -35.01291 | -60.50077 | 26149 ft | 465 kts | 91° |
| 2026-05-04 03:35 | -35.01362 | -60.46150 | 25649 ft | 462 kts | 91° |
| 2026-05-04 03:35 | -35.01432 | -60.42234 | 25147 ft | 459 kts | 91° |
| 2026-05-04 03:36 | -35.01500 | -60.38350 | 24646 ft | 456 kts | 91° |
| 2026-05-04 03:36 | -35.01567 | -60.34481 | 24147 ft | 454 kts | 91° |
| 2026-05-04 03:36 | -35.01632 | -60.30640 | 23767 ft | 450 kts | 91° |
| 2026-05-04 03:36 | -35.01695 | -60.26839 | 23392 ft | 447 kts | 91° |
| 2026-05-04 03:37 | -35.01757 | -60.23058 | 23016 ft | 444 kts | 91° |
| 2026-05-04 03:37 | -35.01817 | -60.19299 | 22640 ft | 441 kts | 91° |
| 2026-05-04 03:37 | -35.01875 | -60.15571 | 22265 ft | 439 kts | 91° |
| 2026-05-04 03:37 | -35.01932 | -60.11848 | 21888 ft | 437 kts | 91° |
| 2026-05-04 03:38 | -35.01988 | -60.08144 | 21512 ft | 434 kts | 91° |
| 2026-05-04 03:38 | -35.02042 | -60.04515 | 21141 ft | 432 kts | 91° |
| 2026-05-04 03:38 | -35.02100 | -60.00856 | 20765 ft | 430 kts | 91° |
| 2026-05-04 03:38 | -35.02172 | -59.97213 | 20389 ft | 428 kts | 91° |
| 2026-05-04 03:39 | -35.02231 | -59.93576 | 20011 ft | 425 kts | 91° |
| 2026-05-04 03:39 | -35.02279 | -59.89977 | 19636 ft | 423 kts | 91° |
| 2026-05-04 03:39 | -35.02322 | -59.86395 | 19260 ft | 421 kts | 91° |
| 2026-05-04 03:39 | -35.02362 | -59.82877 | 18807 ft | 420 kts | 91° |
| 2026-05-04 03:40 | -35.02402 | -59.79319 | 18306 ft | 418 kts | 91° |
| 2026-05-04 03:40 | -35.02440 | -59.75779 | 17805 ft | 415 kts | 91° |
| 2026-05-04 03:40 | -35.02493 | -59.72265 | 17303 ft | 412 kts | 91° |
| 2026-05-04 03:40 | -35.02555 | -59.68773 | 16802 ft | 410 kts | 91° |
| 2026-05-04 03:41 | -35.02617 | -59.65310 | 16301 ft | 407 kts | 91° |
| 2026-05-04 03:41 | -35.02641 | -59.61866 | 15798 ft | 404 kts | 88° |
| 2026-05-04 03:41 | -35.02314 | -59.58481 | 15302 ft | 401 kts | 79° |
| 2026-05-04 03:41 | -35.01776 | -59.55189 | 14839 ft | 398 kts | 77° |
| 2026-05-04 03:42 | -35.01171 | -59.51914 | 14464 ft | 394 kts | 76° |
| 2026-05-04 03:42 | -35.00556 | -59.48668 | 14088 ft | 390 kts | 76° |
| 2026-05-04 03:42 | -34.99943 | -59.45454 | 13712 ft | 387 kts | 76° |
| 2026-05-04 03:42 | -34.99335 | -59.42270 | 13337 ft | 385 kts | 76° |
| 2026-05-04 03:43 | -34.98726 | -59.39095 | 12961 ft | 383 kts | 76° |
| 2026-05-04 03:43 | -34.98121 | -59.35941 | 12585 ft | 381 kts | 76° |
| 2026-05-04 03:43 | -34.97519 | -59.32809 | 12210 ft | 379 kts | 76° |
| 2026-05-04 03:43 | -34.96916 | -59.29682 | 11833 ft | 377 kts | 76° |
| 2026-05-04 03:44 | -34.96318 | -59.26589 | 11458 ft | 373 kts | 76° |
| 2026-05-04 03:44 | -34.95725 | -59.23531 | 11134 ft | 367 kts | 76° |
| 2026-05-04 03:44 | -34.95150 | -59.20566 | 11080 ft | 353 kts | 76° |
| 2026-05-04 03:44 | -34.94595 | -59.17711 | 11015 ft | 340 kts | 76° |
| 2026-05-04 03:45 | -34.94058 | -59.14942 | 10799 ft | 327 kts | 76° |
| 2026-05-04 03:45 | -34.93556 | -59.12347 | 10547 ft | 311 kts | 76° |
| 2026-05-04 03:45 | -34.93077 | -59.09822 | 10299 ft | 303 kts | 78° |
| 2026-05-04 03:45 | -34.93060 | -59.07291 | 10055 ft | 298 kts | 99° |
| 2026-05-04 03:46 | -34.93615 | -59.04868 | 9801 ft | 295 kts | 109° |
| 2026-05-04 03:46 | -34.94300 | -59.02533 | 9550 ft | 291 kts | 112° |
| 2026-05-04 03:46 | -34.95019 | -59.00236 | 9298 ft | 287 kts | 112° |
| 2026-05-04 03:46 | -34.95732 | -58.97974 | 9047 ft | 284 kts | 112° |
| 2026-05-04 03:47 | -34.96440 | -58.95736 | 8795 ft | 280 kts | 112° |
| 2026-05-04 03:47 | -34.97196 | -58.93598 | 8551 ft | 276 kts | 118° |
| 2026-05-04 03:47 | -34.98107 | -58.91562 | 8305 ft | 272 kts | 121° |
| 2026-05-04 03:47 | -34.99050 | -58.89575 | 8054 ft | 269 kts | 122° |
| 2026-05-04 03:48 | -34.99988 | -58.87616 | 7803 ft | 266 kts | 122° |
| 2026-05-04 03:48 | -35.00917 | -58.85673 | 7551 ft | 263 kts | 122° |
| 2026-05-04 03:48 | -35.01863 | -58.83770 | 7300 ft | 260 kts | 124° |
| 2026-05-04 03:48 | -35.02818 | -58.81902 | 7048 ft | 258 kts | 124° |
| 2026-05-04 03:49 | -35.03763 | -58.80058 | 6797 ft | 256 kts | 124° |
| 2026-05-04 03:49 | -35.04702 | -58.78225 | 6546 ft | 253 kts | 124° |
| 2026-05-04 03:49 | -35.05636 | -58.76409 | 6295 ft | 251 kts | 124° |
| 2026-05-04 03:49 | -35.06576 | -58.74626 | 6051 ft | 249 kts | 124° |
| 2026-05-04 03:50 | -35.07504 | -58.72895 | 5986 ft | 246 kts | 124° |
| 2026-05-04 03:50 | -35.08440 | -58.71156 | 6004 ft | 244 kts | 124° |
| 2026-05-04 03:50 | -35.09370 | -58.69424 | 6003 ft | 244 kts | 124° |
| 2026-05-04 03:50 | -35.10305 | -58.67683 | 6014 ft | 243 kts | 124° |
| 2026-05-04 03:51 | -35.11222 | -58.65945 | 6013 ft | 245 kts | 123° |
| 2026-05-04 03:51 | -35.12001 | -58.64097 | 6001 ft | 245 kts | 115° |
| 2026-05-04 03:51 | -35.12570 | -58.62136 | 6000 ft | 245 kts | 107° |
| 2026-05-04 03:51 | -35.13027 | -58.60135 | 6003 ft | 245 kts | 105° |
| 2026-05-04 03:52 | -35.13461 | -58.58096 | 5798 ft | 248 kts | 104° |
| 2026-05-04 03:52 | -35.13782 | -58.56065 | 5563 ft | 245 kts | 98° |
| 2026-05-04 03:52 | -35.13902 | -58.54000 | 5324 ft | 241 kts | 89° |
| 2026-05-04 03:52 | -35.13829 | -58.51962 | 5079 ft | 238 kts | 83° |
| 2026-05-04 03:53 | -35.13577 | -58.49983 | 4843 ft | 234 kts | 78° |
| 2026-05-04 03:53 | -35.13262 | -58.48043 | 4595 ft | 232 kts | 76° |
| 2026-05-04 03:53 | -35.12931 | -58.46119 | 4344 ft | 230 kts | 76° |
| 2026-05-04 03:53 | -35.12357 | -58.44336 | 4086 ft | 224 kts | 58° |
| 2026-05-04 03:54 | -35.11232 | -58.43076 | 3774 ft | 220 kts | 30° |
| 2026-05-04 03:54 | -35.09755 | -58.42790 | 3549 ft | 218 kts | 357° |
| 2026-05-04 03:54 | -35.08313 | -58.43292 | 3326 ft | 213 kts | 342° |
| 2026-05-04 03:54 | -35.06929 | -58.43920 | 3071 ft | 212 kts | 339° |
| 2026-05-04 03:55 | -35.05584 | -58.44567 | 3018 ft | 208 kts | 339° |
| 2026-05-04 03:55 | -35.04225 | -58.45165 | 3059 ft | 208 kts | 341° |
| 2026-05-04 03:55 | -35.02835 | -58.45707 | 3026 ft | 211 kts | 343° |
| 2026-05-04 03:55 | -35.01432 | -58.46212 | 3006 ft | 210 kts | 343° |
| 2026-05-04 03:56 | -35.00036 | -58.46704 | 2999 ft | 208 kts | 344° |
| 2026-05-04 03:56 | -34.98657 | -58.47187 | 3000 ft | 204 kts | 344° |
| 2026-05-04 03:56 | -34.97301 | -58.47661 | 2926 ft | 203 kts | 344° |
| 2026-05-04 03:56 | -34.95925 | -58.48141 | 2629 ft | 208 kts | 344° |
| 2026-05-04 03:57 | -34.94998 | -58.48464 | 2441 ft | 210 kts | 344° |
| 2026-05-04 03:57 | -34.93598 | -58.48952 | 2159 ft | 206 kts | 344° |
| 2026-05-04 03:57 | -34.92252 | -58.49421 | 1901 ft | 195 kts | 344° |
| 2026-05-04 03:57 | -34.90990 | -58.49861 | 1650 ft | 181 kts | 344° |
| 2026-05-04 03:58 | -34.88757 | -58.50638 | 1190 ft | 157 kts | 344° |
| 2026-05-04 03:58 | -34.87727 | -58.50996 | 983 ft | 152 kts | 344° |
| 2026-05-04 03:58 | -34.86723 | -58.51346 | 785 ft | 148 kts | 344° |
| 2026-05-04 03:59 | -34.85735 | -58.51689 | 591 ft | 148 kts | 344° |
| 2026-05-04 03:59 | -34.84746 | -58.52033 | 398 ft | 148 kts | 344° |
| 2026-05-04 03:59 | -34.83752 | -58.52379 | 203 ft | 148 kts | 344° |
| 2026-05-04 03:59 | -34.82771 | -58.52720 | 81 ft | 140 kts | 344° |
| 2026-05-04 04:00 | -34.81974 | -58.52997 | 80 ft | 99 kts | 344° |
| 2026-05-04 04:00 | -34.81446 | -58.53180 | 80 ft | 59 kts | 344° |
| 2026-05-04 04:00 | -34.81254 | -58.53246 | 80 ft | 20 kts | 344° |
| 2026-05-04 04:00 | -34.81159 | -58.53308 | 80 ft | 13 kts | 296° |
| 2026-05-04 04:01 | -34.81141 | -58.53394 | 80 ft | 8 kts | 279° |
| 2026-05-04 04:01 | -34.81135 | -58.53451 | 80 ft | 8 kts | 277° |
| 2026-05-04 04:01 | -34.81131 | -58.53507 | 80 ft | 5 kts | 261° |
| 2026-05-04 04:01 | -34.81167 | -58.53565 | 80 ft | 15 kts | 227° |
| 2026-05-04 04:02 | -34.81230 | -58.53657 | 80 ft | 12 kts | 216° |
| 2026-05-04 04:02 | -34.81278 | -58.53702 | 80 ft | 5 kts | 218° |
| 2026-05-04 04:02 | -34.81293 | -58.53717 | 80 ft | 0 kts | 218° |